aviador You're here:

LFRC Decoded Metar

CHERBOURG in FRANCE
Report Time2017-09-23 21:00:00
UTC Time2017-09-23 21:36:04
Flight Rules vfr VFR
Wind110° at 06 kt
W.Decomp.*RWY 10: 5.9 kt HW 1.2 kt RCW
W.Rank110° ranks 30
Current wind is below 110° avg. (7.0)
Visibility9999 m
Phenomena:N/A
Clouds:N/A
Expected CloudBase > 400 ft AGL from Temp-Dew spread
CeilingNone
Temp13°C (ISA -1)
Dew Point12°C (94% RH)
AAT11.5°C
QNH1019 hPa
Density Alt308 ft
Elevation453 ft
Report Wrong Elevation
Raw Report
LFRC 232100Z AUTO 11006KT CAVOK 13/12 Q1019=

Extra information for LFRC:More info

Metar Taf Metar & Taf Last 4 Metars F.Rules Stats Wind Profile Meteogram Temp Stats Airport Information Weather charts Add Link Nearby VenuesMetar ALERT Operation Metar Decoded Social comments